createdAt,value
2023-02-16T00:01:46.966Z,1.00
2023-02-16T00:04:19.881Z,1.00
2023-02-16T00:06:47.492Z,1.00
2023-02-16T00:09:14.602Z,1.00
2023-02-16T00:12:01.197Z,1.00
2023-02-16T00:14:28.455Z,1.00
2023-02-16T00:16:59.669Z,1.00
2023-02-16T00:19:44.637Z,1.00
2023-02-16T00:22:11.447Z,1.00
2023-02-16T00:24:38.203Z,1.00
2023-02-16T00:27:14.009Z,1.00
2023-02-16T00:29:40.846Z,1.00
2023-02-16T00:32:10.931Z,1.00
2023-02-16T00:34:41.938Z,1.00
2023-02-16T00:37:11.078Z,1.00
2023-02-16T00:39:39.208Z,1.00
2023-02-16T00:42:29.343Z,1.00
2023-02-16T00:44:57.774Z,1.00
2023-02-16T00:47:38.322Z,1.00
2023-02-16T00:50:17.053Z,1.00
2023-02-16T00:52:46.293Z,1.00
2023-02-16T00:55:27.667Z,99.90
2023-02-16T00:58:04.952Z,99.90
2023-02-16T01:00:39.544Z,99.90
2023-02-16T01:03:14.208Z,99.90
2023-02-16T01:05:41.064Z,99.90
2023-02-16T01:08:35.138Z,99.90
2023-02-16T01:11:07.604Z,99.90
2023-02-16T01:13:44.702Z,99.90
2023-02-16T01:16:18.859Z,99.90
2023-02-16T01:18:46.695Z,99.90
2023-02-16T01:21:13.892Z,99.90
2023-02-16T01:23:41.507Z,1.00
2023-02-16T01:26:17.479Z,99.90
2023-02-16T01:28:45.333Z,99.90
2023-02-16T01:31:13.439Z,99.90
2023-02-16T01:33:42.296Z,99.90
2023-02-16T01:36:33.899Z,99.90
2023-02-16T01:39:01.901Z,99.90
2023-02-16T01:41:52.271Z,99.90
2023-02-16T01:44:55.797Z,99.90
2023-02-16T01:47:39.541Z,99.90
2023-02-16T01:50:55.809Z,99.90
2023-02-16T01:53:31.072Z,99.90
2023-02-16T01:56:03.950Z,99.90
2023-02-16T01:58:45.992Z,99.90
2023-02-16T02:01:38.564Z,99.90
2023-02-16T02:04:52.690Z,1.00
2023-02-16T02:07:36.081Z,1.00
2023-02-16T02:10:24.256Z,1.00
2023-02-16T02:13:22.511Z,1.00
2023-02-16T02:15:49.634Z,1.00
2023-02-16T02:18:16.506Z,1.00
2023-02-16T02:21:18.126Z,1.00
2023-02-16T02:24:03.848Z,1.00
2023-02-16T02:26:33.983Z,1.00
2023-02-16T02:29:03.708Z,1.00
2023-02-16T02:31:39.563Z,1.00
2023-02-16T02:34:15.505Z,1.00
2023-02-16T02:36:50.923Z,1.00
2023-02-16T02:39:17.902Z,1.00
2023-02-16T02:42:05.458Z,1.00
2023-02-16T02:44:52.438Z,1.00
2023-02-16T02:47:19.711Z,1.00
2023-02-16T02:49:51.878Z,1.00
2023-02-16T02:52:19.922Z,1.00
2023-02-16T02:55:07.410Z,1.00
2023-02-16T02:57:55.973Z,1.00
2023-02-16T03:00:48.110Z,1.00
2023-02-16T03:03:35.404Z,1.00
2023-02-16T03:06:21.331Z,1.00
2023-02-16T03:08:54.911Z,1.00
2023-02-16T03:11:48.181Z,1.00
2023-02-16T03:14:22.711Z,1.00
2023-02-16T03:17:30.869Z,1.00
2023-02-16T03:20:18.683Z,1.00
2023-02-16T03:23:04.922Z,1.00
2023-02-16T03:25:54.285Z,1.00
2023-02-16T03:28:43.683Z,1.00
2023-02-16T03:31:14.056Z,1.00
2023-02-16T03:33:41.565Z,1.00
2023-02-16T03:36:09.593Z,99.90
2023-02-16T03:38:37.822Z,99.90
2023-02-16T03:41:05.886Z,66.00
2023-02-16T03:43:33.045Z,1.00
2023-02-16T03:46:00.339Z,1.00
2023-02-16T03:48:27.574Z,1.00
2023-02-16T03:50:54.677Z,1.00
2023-02-16T03:53:21.485Z,1.00
2023-02-16T03:55:49.125Z,1.00
2023-02-16T03:58:22.567Z,1.00
2023-02-16T04:00:50.441Z,1.00
2023-02-16T04:03:18.030Z,1.00
2023-02-16T04:05:45.317Z,1.00
2023-02-16T04:08:12.816Z,1.00
2023-02-16T04:10:40.227Z,1.00
2023-02-16T04:13:07.289Z,1.00
2023-02-16T04:15:34.290Z,1.00
2023-02-16T04:18:01.391Z,1.00
2023-02-16T04:20:31.291Z,1.00
2023-02-16T04:22:58.572Z,1.00
2023-02-16T04:25:25.847Z,7.30
2023-02-16T04:27:53.391Z,29.90
2023-02-16T04:30:26.406Z,1.00
2023-02-16T04:32:53.416Z,1.00
2023-02-16T04:35:20.819Z,1.00
2023-02-16T04:37:47.828Z,1.00
2023-02-16T04:40:16.851Z,1.00
2023-02-16T04:42:44.348Z,1.00
2023-02-16T04:45:12.265Z,1.00
2023-02-16T04:47:39.070Z,1.00
2023-02-16T04:50:06.691Z,1.00
2023-02-16T04:52:34.345Z,1.00
2023-02-16T04:55:01.265Z,1.00
2023-02-16T04:57:28.040Z,1.00
2023-02-16T04:59:55.283Z,1.00
2023-02-16T05:02:22.109Z,1.00
2023-02-16T05:04:48.980Z,1.00
2023-02-16T05:07:15.704Z,1.00
2023-02-16T05:09:42.535Z,1.00
2023-02-16T05:12:29.718Z,1.00
2023-02-16T05:14:56.436Z,1.00
2023-02-16T05:17:25.900Z,1.00
2023-02-16T05:19:54.954Z,1.00
2023-02-16T05:22:22.075Z,1.00
2023-02-16T05:24:49.307Z,1.00
2023-02-16T05:27:18.685Z,1.00
2023-02-16T05:29:45.465Z,1.00
2023-02-16T05:32:12.897Z,1.00
2023-02-16T05:34:39.816Z,1.00
2023-02-16T05:37:06.875Z,1.00
2023-02-16T05:39:33.708Z,1.00
2023-02-16T05:42:00.612Z,1.00
2023-02-16T05:44:27.529Z,1.00
2023-02-16T05:46:54.417Z,1.00
2023-02-16T05:49:21.261Z,1.00
2023-02-16T05:51:48.045Z,1.00
2023-02-16T05:54:17.993Z,1.00
2023-02-16T05:56:50.799Z,1.00
2023-02-16T05:59:17.769Z,1.00
2023-02-16T06:01:48.667Z,1.00
2023-02-16T06:04:18.411Z,1.00
2023-02-16T06:06:45.261Z,1.00
2023-02-16T06:09:12.271Z,1.00
2023-02-16T06:11:39.192Z,1.00
2023-02-16T06:14:15.044Z,1.00
2023-02-16T06:16:44.589Z,1.00
2023-02-16T06:19:12.093Z,1.00
2023-02-16T06:21:40.026Z,1.00
2023-02-16T06:24:08.695Z,1.00
2023-02-16T06:26:36.289Z,1.00
2023-02-16T06:29:03.644Z,12.00
2023-02-16T06:31:30.585Z,57.10
2023-02-16T06:33:57.665Z,99.90
2023-02-16T06:36:25.006Z,45.50
2023-02-16T06:38:52.432Z,37.50
2023-02-16T06:41:31.685Z,99.90
2023-02-16T06:44:00.050Z,81.70
2023-02-16T06:46:27.610Z,23.10
2023-02-16T06:48:54.695Z,1.00
2023-02-16T06:51:21.562Z,1.00
2023-02-16T06:53:48.341Z,63.70
2023-02-16T06:56:15.175Z,1.00
2023-02-16T06:58:42.364Z,1.00
2023-02-16T07:01:09.128Z,97.70
2023-02-16T07:03:36.009Z,46.60
2023-02-16T07:06:02.952Z,99.90
2023-02-16T07:08:29.853Z,99.90
2023-02-16T07:10:56.821Z,99.90
2023-02-16T07:13:23.551Z,99.90
2023-02-16T07:15:50.466Z,1.00
2023-02-16T07:18:17.298Z,99.90
2023-02-16T07:20:44.075Z,99.90
2023-02-16T07:23:10.878Z,99.90
2023-02-16T07:25:37.560Z,92.90
2023-02-16T07:28:04.652Z,99.90
2023-02-16T07:30:31.754Z,52.00
2023-02-16T07:32:58.602Z,1.00
2023-02-16T07:35:25.528Z,97.70
2023-02-16T07:37:52.339Z,1.00
2023-02-16T07:40:19.204Z,1.00
2023-02-16T07:42:45.935Z,33.50
2023-02-16T07:45:12.756Z,1.00
2023-02-16T07:47:39.607Z,1.00
2023-02-16T07:50:06.936Z,1.00
2023-02-16T07:52:34.625Z,1.00
2023-02-16T07:55:01.588Z,1.00
2023-02-16T07:57:28.991Z,1.00
2023-02-16T07:59:56.690Z,1.00
2023-02-16T08:02:23.972Z,1.00
2023-02-16T08:04:52.863Z,1.00
2023-02-16T08:07:20.106Z,1.00
2023-02-16T08:09:47.415Z,1.00
2023-02-16T08:12:16.038Z,1.00
2023-02-16T08:14:43.677Z,1.00
2023-02-16T08:17:10.719Z,1.00
2023-02-16T08:19:37.466Z,1.00
2023-02-16T08:22:04.881Z,1.00
2023-02-16T08:24:31.911Z,1.00
2023-02-16T08:26:58.713Z,1.00
2023-02-16T08:29:25.586Z,1.00
2023-02-16T08:31:53.444Z,1.00
2023-02-16T08:34:21.251Z,1.00
2023-02-16T08:36:52.929Z,1.00
2023-02-16T08:39:22.929Z,1.00
2023-02-16T08:41:50.624Z,1.00
2023-02-16T08:44:19.098Z,1.00
2023-02-16T08:46:47.721Z,1.00
2023-02-16T08:49:17.351Z,1.00
2023-02-16T08:51:47.386Z,1.00
2023-02-16T08:54:20.816Z,1.00
2023-02-16T08:56:49.554Z,1.00
2023-02-16T08:59:17.827Z,1.00
2023-02-16T09:01:45.168Z,1.00
2023-02-16T09:04:13.119Z,1.00
2023-02-16T09:06:42.550Z,1.00
2023-02-16T09:09:10.190Z,1.00
2023-02-16T09:11:37.597Z,1.00
2023-02-16T09:14:04.858Z,1.00
2023-02-16T09:16:38.328Z,99.90
2023-02-16T09:19:06.504Z,1.00
2023-02-16T09:21:33.522Z,1.00
2023-02-16T09:24:05.034Z,1.00
2023-02-16T09:26:34.450Z,1.00
2023-02-16T09:29:02.208Z,1.00
2023-02-16T09:31:32.583Z,1.00
2023-02-16T09:34:20.485Z,48.20
2023-02-16T09:36:47.412Z,99.90
2023-02-16T09:39:14.769Z,99.90
2023-02-16T09:41:53.704Z,1.00
2023-02-16T09:44:45.814Z,1.00
2023-02-16T09:47:19.936Z,99.90
2023-02-16T09:49:48.489Z,1.00
2023-02-16T09:52:26.230Z,29.40
2023-02-16T09:54:55.908Z,1.00
2023-02-16T09:57:31.520Z,1.00
2023-02-16T10:00:07.855Z,99.90
2023-02-16T10:02:59.547Z,1.00
2023-02-16T10:05:31.124Z,99.90
2023-02-16T10:08:09.510Z,99.90
2023-02-16T10:10:43.148Z,1.00
2023-02-16T10:13:17.877Z,1.00
2023-02-16T10:15:46.098Z,1.00
2023-02-16T10:18:35.286Z,99.90
2023-02-16T10:21:08.015Z,1.00
2023-02-16T10:23:49.740Z,1.00
2023-02-16T10:26:40.653Z,1.00
2023-02-16T10:29:13.987Z,1.00
2023-02-16T10:31:44.510Z,1.00
2023-02-16T10:34:23.386Z,1.00
2023-02-16T10:37:12.138Z,11.70
2023-02-16T10:40:01.604Z,99.90
2023-02-16T10:42:38.805Z,99.90
2023-02-16T10:45:15.561Z,99.90
2023-02-16T10:47:45.212Z,99.90
2023-02-16T10:50:52.465Z,99.90
2023-02-16T10:53:27.223Z,99.90
2023-02-16T10:55:57.304Z,99.90
2023-02-16T10:58:38.303Z,99.90
2023-02-16T11:01:12.033Z,99.90
2023-02-16T11:03:46.616Z,99.90
2023-02-16T11:06:19.315Z,99.90
2023-02-16T11:08:59.947Z,99.90
2023-02-16T11:11:47.023Z,99.90
2023-02-16T11:14:24.028Z,99.90
2023-02-16T11:17:23.930Z,99.90
2023-02-16T11:19:53.173Z,99.90
2023-02-16T11:22:37.112Z,99.90
2023-02-16T11:25:22.004Z,99.90
2023-02-16T11:28:08.287Z,99.90
2023-02-16T11:30:38.240Z,99.90
2023-02-16T11:33:27.097Z,99.90
2023-02-16T11:35:55.304Z,99.90
2023-02-16T11:38:34.463Z,99.90
2023-02-16T11:41:07.220Z,99.90
2023-02-16T11:43:37.617Z,99.90
2023-02-16T11:46:18.590Z,99.90
2023-02-16T11:48:46.196Z,99.90
2023-02-16T11:51:15.580Z,99.90
2023-02-16T11:53:44.260Z,99.90
2023-02-16T11:56:24.677Z,99.90
2023-02-16T11:59:03.691Z,99.90
2023-02-16T12:02:08.637Z,99.90
2023-02-16T12:05:03.338Z,99.90
2023-02-16T12:07:55.864Z,99.90
2023-02-16T12:10:38.804Z,99.90
2023-02-16T12:13:26.502Z,99.90
2023-02-16T12:16:27.076Z,99.90
2023-02-16T12:19:21.109Z,99.90
2023-02-16T12:21:52.265Z,99.90
2023-02-16T12:24:27.926Z,99.90
2023-02-16T12:26:58.409Z,99.90
2023-02-16T12:29:31.270Z,99.90
2023-02-16T12:32:04.389Z,54.30
2023-02-16T12:34:45.273Z,1.00
2023-02-16T12:37:31.652Z,1.00
2023-02-16T12:40:41.141Z,29.50
2023-02-16T12:43:38.937Z,99.90
2023-02-16T12:46:27.022Z,99.90
2023-02-16T12:49:21.138Z,1.00
2023-02-16T12:52:18.309Z,1.00
2023-02-16T12:54:55.493Z,99.90
2023-02-16T12:57:30.558Z,99.90
2023-02-16T13:00:35.019Z,1.00
2023-02-16T13:03:19.887Z,1.00
2023-02-16T13:05:53.281Z,1.00
2023-02-16T13:08:50.221Z,1.00
2023-02-16T13:11:22.295Z,1.00
2023-02-16T13:13:52.099Z,99.90
2023-02-16T13:16:33.100Z,41.10
2023-02-16T13:18:59.872Z,68.20
2023-02-16T13:21:53.857Z,16.50
2023-02-16T13:24:39.462Z,1.00
2023-02-16T13:27:12.250Z,99.90
2023-02-16T13:30:01.350Z,99.90
2023-02-16T13:32:51.657Z,99.90
2023-02-16T13:35:59.680Z,1.00
2023-02-16T13:38:51.425Z,1.00
2023-02-16T13:41:36.783Z,1.00
2023-02-16T13:44:15.224Z,1.00
2023-02-16T13:46:53.074Z,1.00
2023-02-16T13:49:42.563Z,1.00
2023-02-16T13:52:11.944Z,1.00
2023-02-16T13:54:43.699Z,1.00
2023-02-16T13:57:18.378Z,1.00
2023-02-16T13:59:49.990Z,1.00
2023-02-16T14:03:02.879Z,1.00
2023-02-16T14:05:34.249Z,1.00
2023-02-16T14:08:28.331Z,1.00
2023-02-16T14:10:57.349Z,1.00
2023-02-16T14:13:36.134Z,1.00
2023-02-16T14:16:17.791Z,1.00
2023-02-16T14:18:54.608Z,1.00
2023-02-16T14:21:32.191Z,1.00
2023-02-16T14:24:03.076Z,1.00
2023-02-16T14:26:31.838Z,1.00
2023-02-16T14:29:09.866Z,1.00
2023-02-16T14:31:59.046Z,1.00
2023-02-16T14:34:31.362Z,1.00
2023-02-16T14:37:23.323Z,1.00
2023-02-16T14:40:07.447Z,1.00
2023-02-16T14:42:35.928Z,1.00
2023-02-16T14:45:19.950Z,1.00
2023-02-16T14:48:26.780Z,1.00
2023-02-16T14:51:18.122Z,1.00
2023-02-16T14:53:51.269Z,1.00
2023-02-16T14:56:31.352Z,99.90
2023-02-16T14:59:13.424Z,99.90
2023-02-16T15:01:44.882Z,99.90
2023-02-16T15:04:12.198Z,99.90
2023-02-16T15:06:42.770Z,99.90
2023-02-16T15:09:24.023Z,99.90
2023-02-16T15:12:15.460Z,95.80
2023-02-16T15:14:51.764Z,13.00
2023-02-16T15:17:33.905Z,1.00
2023-02-16T15:20:19.978Z,1.00
2023-02-16T15:22:58.690Z,1.00
2023-02-16T15:25:32.548Z,1.00
2023-02-16T15:28:04.348Z,1.00
2023-02-16T15:30:34.378Z,1.00
2023-02-16T15:33:07.420Z,1.00
2023-02-16T15:35:40.281Z,1.00
2023-02-16T15:38:19.668Z,1.00
2023-02-16T15:40:46.598Z,1.00
2023-02-16T15:43:34.554Z,1.00
2023-02-16T15:46:03.904Z,99.90
2023-02-16T15:48:38.378Z,1.00
2023-02-16T15:51:08.037Z,1.00
2023-02-16T15:53:58.654Z,1.00
2023-02-16T15:56:34.756Z,1.00
2023-02-16T15:59:06.401Z,1.00
2023-02-16T16:01:35.283Z,1.00
2023-02-16T16:04:16.869Z,1.00
2023-02-16T16:06:45.747Z,1.00
2023-02-16T16:09:29.210Z,1.00
2023-02-16T16:11:59.024Z,99.90
2023-02-16T16:14:27.388Z,1.00
2023-02-16T16:16:55.014Z,1.00
2023-02-16T16:19:31.877Z,99.90
2023-02-16T16:21:58.917Z,1.00
2023-02-16T16:24:39.235Z,99.90
2023-02-16T16:27:12.302Z,99.90
2023-02-16T16:29:47.798Z,99.90
2023-02-16T16:32:28.797Z,99.90
2023-02-16T16:34:56.312Z,99.90
2023-02-16T16:37:28.829Z,99.90
2023-02-16T16:40:04.189Z,99.90
2023-02-16T16:42:31.527Z,99.90
2023-02-16T16:45:06.964Z,99.90
2023-02-16T16:47:38.223Z,99.90
2023-02-16T16:50:11.066Z,99.90
2023-02-16T16:52:51.145Z,99.90
2023-02-16T16:55:23.649Z,99.90
2023-02-16T16:58:10.665Z,99.90
2023-02-16T17:00:39.836Z,99.90
2023-02-16T17:03:08.365Z,99.90
2023-02-16T17:05:38.346Z,99.90
2023-02-16T17:08:05.958Z,99.90
2023-02-16T17:10:33.082Z,99.90
2023-02-16T17:13:00.652Z,99.90
2023-02-16T17:15:43.292Z,99.90
2023-02-16T17:18:16.147Z,99.90
2023-02-16T17:20:43.306Z,99.90
2023-02-16T17:23:14.924Z,99.90
2023-02-16T17:25:42.587Z,99.90
2023-02-16T17:28:10.577Z,99.90
2023-02-16T17:30:37.878Z,99.90
2023-02-16T17:33:05.037Z,99.90
2023-02-16T17:35:31.895Z,99.90
2023-02-16T17:37:59.163Z,99.90
2023-02-16T17:40:26.052Z,99.90
2023-02-16T17:42:52.803Z,99.90
2023-02-16T17:45:22.091Z,99.90
2023-02-16T17:47:52.004Z,99.90
2023-02-16T17:50:19.827Z,99.90
2023-02-16T17:52:46.576Z,99.90
2023-02-16T17:55:14.154Z,99.90
2023-02-16T17:57:40.981Z,99.90
2023-02-16T18:00:14.148Z,99.90
2023-02-16T18:02:40.896Z,99.90
2023-02-16T18:05:08.133Z,99.90
2023-02-16T18:07:34.888Z,99.90
2023-02-16T18:10:01.715Z,99.90
2023-02-16T18:12:28.657Z,99.90
2023-02-16T18:14:55.412Z,99.90
2023-02-16T18:17:22.217Z,99.90
2023-02-16T18:19:49.004Z,99.90
2023-02-16T18:22:15.720Z,99.90
2023-02-16T18:24:44.344Z,99.90
2023-02-16T18:27:11.322Z,99.90
2023-02-16T18:29:38.145Z,99.90
2023-02-16T18:32:05.265Z,99.90
2023-02-16T18:34:33.358Z,99.90
2023-02-16T18:37:00.113Z,99.90
2023-02-16T18:39:26.901Z,99.90
2023-02-16T18:41:53.627Z,99.90
2023-02-16T18:44:20.386Z,99.90
2023-02-16T18:46:47.209Z,99.90
2023-02-16T18:49:14.099Z,99.90
2023-02-16T18:51:40.812Z,99.90
2023-02-16T18:54:07.499Z,99.90
2023-02-16T18:56:36.525Z,99.90
2023-02-16T18:59:03.476Z,99.90
2023-02-16T19:01:33.216Z,99.90
2023-02-16T19:04:01.748Z,99.90
2023-02-16T19:06:29.164Z,99.90
2023-02-16T19:08:58.431Z,99.90
2023-02-16T19:11:25.550Z,99.90
2023-02-16T19:13:52.305Z,99.90
2023-02-16T19:16:19.167Z,99.90
2023-02-16T19:18:46.159Z,99.90
2023-02-16T19:21:14.828Z,99.90
2023-02-16T19:23:41.996Z,99.90
2023-02-16T19:26:11.469Z,99.90
2023-02-16T19:28:39.366Z,99.90
2023-02-16T19:31:08.060Z,99.90
2023-02-16T19:33:35.396Z,99.90
2023-02-16T19:36:04.855Z,99.90
2023-02-16T19:38:32.013Z,99.90
2023-02-16T19:40:59.722Z,99.90
2023-02-16T19:43:26.920Z,99.90
2023-02-16T19:45:53.788Z,99.90
2023-02-16T19:48:20.575Z,99.90
2023-02-16T19:50:47.487Z,99.90
2023-02-16T19:53:14.263Z,99.90
2023-02-16T19:55:42.513Z,99.90
2023-02-16T19:58:09.394Z,99.90
2023-02-16T20:00:36.921Z,99.90
2023-02-16T20:03:04.308Z,99.90
2023-02-16T20:05:31.116Z,99.90
2023-02-16T20:07:57.880Z,99.90
2023-02-16T20:10:24.837Z,99.90
2023-02-16T20:12:51.642Z,99.90
2023-02-16T20:15:18.532Z,99.90
2023-02-16T20:17:45.341Z,99.90
2023-02-16T20:20:12.798Z,99.90
2023-02-16T20:22:39.522Z,99.90
2023-02-16T20:25:06.482Z,99.90
2023-02-16T20:27:33.409Z,99.90
2023-02-16T20:30:03.014Z,99.90
2023-02-16T20:32:30.440Z,99.90
2023-02-16T20:34:57.161Z,99.90
2023-02-16T20:37:24.062Z,99.90
2023-02-16T20:39:51.159Z,99.90
2023-02-16T20:42:17.934Z,99.90
2023-02-16T20:44:44.683Z,99.90
2023-02-16T20:47:11.483Z,99.90
2023-02-16T20:49:38.295Z,99.90
2023-02-16T20:52:05.262Z,99.90
2023-02-16T20:54:32.004Z,99.90
2023-02-16T20:56:58.928Z,99.90
2023-02-16T20:59:25.726Z,99.90
2023-02-16T21:01:53.122Z,99.90
2023-02-16T21:04:20.624Z,99.90
2023-02-16T21:06:47.623Z,99.90
2023-02-16T21:09:14.817Z,99.90
2023-02-16T21:11:41.993Z,99.90
2023-02-16T21:14:11.785Z,99.90
2023-02-16T21:16:39.595Z,99.90
2023-02-16T21:19:17.244Z,99.90
2023-02-16T21:21:49.184Z,99.90
2023-02-16T21:24:15.954Z,99.90
2023-02-16T21:26:42.904Z,99.90
2023-02-16T21:29:09.644Z,99.90
2023-02-16T21:31:36.618Z,99.90
2023-02-16T21:34:04.069Z,99.90
2023-02-16T21:36:31.008Z,99.90
2023-02-16T21:38:57.748Z,99.90
2023-02-16T21:41:30.229Z,99.90
2023-02-16T21:44:06.920Z,99.90
2023-02-16T21:46:39.790Z,99.90
2023-02-16T21:49:09.732Z,99.90
2023-02-16T21:51:38.289Z,99.90
2023-02-16T21:54:11.324Z,99.90
2023-02-16T21:56:40.069Z,99.90
2023-02-16T21:59:13.328Z,99.90
2023-02-16T22:01:43.212Z,99.90
2023-02-16T22:04:15.759Z,99.90
2023-02-16T22:06:45.416Z,99.90
2023-02-16T22:09:18.320Z,99.90
2023-02-16T22:11:45.929Z,99.90
2023-02-16T22:14:12.986Z,99.90
2023-02-16T22:16:39.962Z,99.90
2023-02-16T22:19:11.436Z,99.90
2023-02-16T22:21:39.980Z,99.90
2023-02-16T22:24:07.696Z,99.90
2023-02-16T22:26:35.774Z,99.90
2023-02-16T22:29:07.256Z,99.90
2023-02-16T22:31:34.296Z,99.90
2023-02-16T22:34:03.476Z,99.90
2023-02-16T22:36:30.512Z,99.90
2023-02-16T22:38:57.487Z,99.90
2023-02-16T22:41:25.312Z,99.90
2023-02-16T22:43:54.245Z,99.90
2023-02-16T22:46:22.156Z,99.90
2023-02-16T22:48:49.502Z,99.90
2023-02-16T22:51:18.058Z,99.90
2023-02-16T22:53:45.279Z,99.90
2023-02-16T22:56:14.754Z,99.90
2023-02-16T22:58:41.650Z,99.90
2023-02-16T23:01:16.780Z,99.90
2023-02-16T23:03:45.928Z,99.90
2023-02-16T23:06:15.001Z,99.90
2023-02-16T23:08:43.179Z,99.90
2023-02-16T23:11:10.375Z,99.90
2023-02-16T23:13:37.601Z,99.90
2023-02-16T23:16:10.854Z,99.90
2023-02-16T23:18:37.831Z,99.90
2023-02-16T23:21:31.459Z,99.90
2023-02-16T23:23:59.266Z,99.90
2023-02-16T23:26:29.730Z,99.90
2023-02-16T23:29:00.786Z,99.90
2023-02-16T23:31:30.626Z,99.90
2023-02-16T23:33:57.544Z,99.90
2023-02-16T23:36:24.372Z,99.90
2023-02-16T23:38:51.253Z,99.90
2023-02-16T23:41:18.045Z,99.90
2023-02-16T23:43:44.791Z,99.90
2023-02-16T23:46:11.867Z,99.90
2023-02-16T23:48:38.759Z,99.90
2023-02-16T23:51:06.359Z,99.90
2023-02-16T23:53:33.398Z,99.90
2023-02-16T23:56:09.392Z,99.90
2023-02-16T23:58:41.043Z,99.90
